Time;durP1;ratioP1;P1;durP2;ratioP2;P2;SDS_P1;SDS_P2;PMS_P1;PMS_P2;Temp;Humidity;BMP_temperature;BMP_pressure;BME280_temperature;BME280_humidity;BME280_pressure;Samples;Min_cycle;Max_cycle;Signal;HPM_P1;HPM_P2
2021/10/19 00:00:11;;;;;;;12.43;8.27;;;13.90;99.90;;;;;;6243416;22;20242;-89
2021/10/19 00:02:36;;;;;;;12.53;7.90;;;13.90;99.90;;;;;;6268373;22;20193;-88
2021/10/19 00:05:03;;;;;;;14.17;7.37;;;13.80;99.90;;;;;;6192278;22;20211;-88
2021/10/19 00:07:29;;;;;;;12.10;8.93;;;13.90;99.90;;;;;;6242668;22;20230;-88
2021/10/19 00:09:55;;;;;;;12.77;7.90;;;13.90;99.90;;;;;;6216753;22;20201;-88
2021/10/19 00:12:21;;;;;;;11.87;7.77;;;13.90;99.90;;;;;;6243125;22;20153;-88
2021/10/19 00:14:47;;;;;;;14.30;8.47;;;13.90;99.90;;;;;;6215221;22;20204;-88
2021/10/19 00:17:13;;;;;;;14.20;8.17;;;13.90;99.90;;;;;;6238456;22;20197;-88
2021/10/19 00:19:39;;;;;;;13.37;7.60;;;13.90;99.90;;;;;;6237172;22;20240;-88
2021/10/19 00:22:05;;;;;;;15.30;8.37;;;13.90;99.90;;;;;;6188360;22;20245;-88
2021/10/19 00:24:31;;;;;;;15.20;9.03;;;13.90;99.90;;;;;;6239922;22;20153;-87
2021/10/19 00:26:57;;;;;;;16.80;8.77;;;14.00;99.90;;;;;;6266686;22;20184;-87
2021/10/19 00:29:23;;;;;;;14.43;7.97;;;14.00;99.90;;;;;;6267574;22;20200;-88
2021/10/19 00:31:50;;;;;;;12.77;7.60;;;14.00;99.90;;;;;;6216293;22;20254;-88
2021/10/19 00:34:15;;;;;;;17.30;9.83;;;14.00;99.90;;;;;;6217389;22;20246;-88
2021/10/19 00:36:41;;;;;;;13.10;7.37;;;14.00;99.90;;;;;;6268090;22;20483;-87
2021/10/19 00:39:07;;;;;;;12.60;7.57;;;14.00;99.90;;;;;;6216636;22;20183;-88
2021/10/19 00:41:33;;;;;;;16.37;8.60;;;14.00;99.90;;;;;;6216599;22;20280;-88
2021/10/19 00:43:59;;;;;;;15.20;8.00;;;14.00;99.90;;;;;;6268105;22;20869;-88
2021/10/19 00:46:26;;;;;;;13.07;7.07;;;14.00;99.90;;;;;;6241710;22;20192;-86
2021/10/19 00:48:52;;;;;;;16.30;8.73;;;14.00;99.90;;;;;;6241315;22;20304;-88
2021/10/19 00:51:18;;;;;;;16.33;9.07;;;14.00;99.90;;;;;;6242892;22;20164;-87
2021/10/19 00:53:45;;;;;;;12.70;8.23;;;14.00;99.90;;;;;;6240761;22;20200;-88
2021/10/19 00:56:12;;;;;;;12.57;8.37;;;14.00;99.90;;;;;;6241716;22;20326;-87
2021/10/19 00:58:38;;;;;;;16.23;8.73;;;14.00;99.90;;;;;;6216246;22;20967;-87
2021/10/19 01:01:04;;;;;;;12.23;7.60;;;14.00;99.90;;;;;;6241295;22;20208;-87
2021/10/19 01:03:30;;;;;;;15.00;9.00;;;14.00;99.90;;;;;;6216473;22;20152;-88
2021/10/19 01:05:57;;;;;;;13.50;8.63;;;14.00;99.90;;;;;;6215583;22;20212;-86
2021/10/19 01:08:22;;;;;;;18.57;8.80;;;14.00;99.90;;;;;;6191498;22;20337;-87
2021/10/19 01:10:49;;;;;;;16.40;8.57;;;14.00;99.90;;;;;;6190911;22;20219;-88
2021/10/19 01:13:15;;;;;;;15.33;10.13;;;14.00;99.90;;;;;;6267979;22;20226;-87
2021/10/19 01:15:41;;;;;;;12.73;8.43;;;14.00;99.90;;;;;;6241079;22;20153;-87
2021/10/19 01:18:07;;;;;;;14.70;9.63;;;14.00;99.90;;;;;;6240318;22;20156;-88
2021/10/19 01:20:35;;;;;;;13.00;8.27;;;14.10;99.90;;;;;;6265858;22;20204;-86
2021/10/19 01:23:02;;;;;;;15.23;9.87;;;14.00;99.90;;;;;;6213941;22;20220;-87
2021/10/19 01:25:31;;;;;;;15.60;8.13;;;14.10;99.90;;;;;;6239225;22;20189;-85
2021/10/19 01:28:03;;;;;;;15.87;8.60;;;14.10;99.90;;;;;;6240961;22;20192;-87
2021/10/19 01:30:29;;;;;;;15.60;7.77;;;14.10;99.90;;;;;;6242146;22;20248;-87
2021/10/19 01:32:55;;;;;;;17.97;8.70;;;14.10;99.90;;;;;;6240596;22;20244;-87
2021/10/19 01:35:42;;;;;;;14.17;8.53;;;14.10;99.90;;;;;;6241655;22;20204;-87
2021/10/19 01:38:13;;;;;;;15.50;9.33;;;14.10;99.90;;;;;;6240838;22;20915;-85
2021/10/19 01:40:39;;;;;;;16.57;9.67;;;14.10;99.90;;;;;;6266848;22;20656;-86
2021/10/19 01:43:18;;;;;;;13.70;9.57;;;14.10;99.90;;;;;;6240911;22;20196;-86
2021/10/19 01:45:44;;;;;;;14.27;8.27;;;14.10;99.90;;;;;;6267087;22;20211;-86
2021/10/19 01:48:10;;;;;;;16.83;8.70;;;14.10;99.90;;;;;;6241746;22;20164;-87
2021/10/19 01:50:37;;;;;;;12.90;9.07;;;14.10;99.90;;;;;;6240912;22;20204;-87
2021/10/19 01:53:06;;;;;;;12.97;8.60;;;14.10;99.90;;;;;;6215731;22;20214;-87
2021/10/19 01:55:32;;;;;;;15.17;8.80;;;14.00;99.90;;;;;;6213446;22;20552;-86
2021/10/19 01:57:59;;;;;;;15.03;8.60;;;14.00;99.90;;;;;;6214725;22;20203;-87
2021/10/19 02:00:25;;;;;;;16.43;8.60;;;14.00;99.90;;;;;;6216195;22;20234;-87
2021/10/19 02:02:51;;;;;;;13.37;8.33;;;14.00;99.90;;;;;;6240170;22;20197;-86
2021/10/19 02:05:16;;;;;;;16.57;9.53;;;14.00;99.90;;;;;;6215190;22;20196;-86
2021/10/19 02:07:42;;;;;;;15.50;9.00;;;14.00;99.90;;;;;;6240145;22;20192;-87
2021/10/19 02:10:10;;;;;;;13.03;8.30;;;14.00;99.90;;;;;;6215869;22;20222;-87
2021/10/19 02:12:36;;;;;;;17.50;10.10;;;14.00;99.90;;;;;;6215480;22;20248;-87
2021/10/19 02:15:04;;;;;;;16.57;8.07;;;13.90;99.90;;;;;;6241611;22;20157;-87
2021/10/19 02:17:29;;;;;;;14.03;8.90;;;13.90;99.90;;;;;;6240684;22;20264;-87
2021/10/19 02:19:55;;;;;;;15.03;8.30;;;14.00;99.90;;;;;;6215913;22;20245;-86
2021/10/19 02:22:21;;;;;;;12.60;8.30;;;14.00;99.90;;;;;;6241408;22;20224;-87
2021/10/19 02:24:47;;;;;;;16.07;9.83;;;14.00;99.90;;;;;;6215641;22;20157;-87
2021/10/19 02:27:13;;;;;;;11.63;7.17;;;14.00;99.90;;;;;;6241322;22;20167;-87
2021/10/19 02:29:38;;;;;;;15.60;8.30;;;14.00;99.90;;;;;;6267924;22;20196;-87
2021/10/19 02:32:04;;;;;;;14.17;8.80;;;13.90;99.90;;;;;;6215599;22;20192;-87
2021/10/19 02:34:30;;;;;;;17.87;9.20;;;13.90;99.90;;;;;;6215826;22;20816;-88
2021/10/19 02:36:56;;;;;;;14.73;7.27;;;13.90;99.90;;;;;;6240467;22;20211;-86
2021/10/19 02:39:21;;;;;;;15.37;8.37;;;13.80;99.90;;;;;;6267771;22;20275;-88
2021/10/19 02:41:47;;;;;;;14.20;8.13;;;13.80;99.90;;;;;;6215109;22;20200;-88
2021/10/19 02:44:13;;;;;;;12.83;8.00;;;13.80;99.90;;;;;;6190545;22;20204;-86
2021/10/19 02:46:39;;;;;;;13.67;9.10;;;13.80;99.90;;;;;;6240264;22;20258;-89
2021/10/19 02:49:05;;;;;;;13.93;8.20;;;13.80;99.90;;;;;;6240711;22;20216;-86
2021/10/19 02:51:31;;;;;;;15.67;9.37;;;13.80;99.90;;;;;;6241580;22;20183;-86
2021/10/19 02:53:57;;;;;;;13.70;8.93;;;13.80;99.90;;;;;;6239798;22;20189;-87
2021/10/19 02:56:23;;;;;;;11.77;8.37;;;13.80;99.90;;;;;;6240278;22;20193;-87
2021/10/19 02:58:49;;;;;;;14.13;9.43;;;13.80;99.90;;;;;;6240419;22;20522;-87
2021/10/19 03:01:16;;;;;;;15.90;8.87;;;13.80;99.90;;;;;;6267069;22;20690;-87
2021/10/19 03:03:41;;;;;;;14.30;8.30;;;13.90;99.90;;;;;;6240932;22;20157;-87
2021/10/19 03:06:07;;;;;;;13.67;8.27;;;13.80;99.90;;;;;;6240681;22;20215;-87
2021/10/19 03:08:33;;;;;;;13.60;8.57;;;13.80;99.90;;;;;;6240216;22;20200;-87
2021/10/19 03:10:59;;;;;;;12.83;8.40;;;13.80;99.90;;;;;;6240828;22;20208;-87
2021/10/19 03:13:27;;;;;;;12.17;7.63;;;13.90;99.90;;;;;;6215667;22;20947;-87
2021/10/19 03:15:53;;;;;;;19.83;9.03;;;13.90;99.90;;;;;;6215548;22;20243;-88
2021/10/19 03:18:19;;;;;;;13.83;8.17;;;13.90;99.90;;;;;;6269956;22;20153;-87
2021/10/19 03:20:44;;;;;;;16.77;10.00;;;13.80;99.90;;;;;;6217893;22;20667;-87
2021/10/19 03:23:10;;;;;;;12.57;8.57;;;13.80;99.90;;;;;;6218022;22;20204;-88
2021/10/19 03:25:36;;;;;;;12.67;7.93;;;13.80;99.90;;;;;;6242218;22;20254;-87
2021/10/19 03:28:02;;;;;;;16.43;8.43;;;13.80;99.90;;;;;;6242540;22;20200;-87
2021/10/19 03:30:28;;;;;;;13.07;8.77;;;13.80;99.90;;;;;;6218172;22;20167;-87
2021/10/19 03:32:53;;;;;;;18.07;9.07;;;13.80;99.90;;;;;;6242203;22;20197;-87
2021/10/19 03:35:19;;;;;;;13.57;8.13;;;13.80;99.90;;;;;;6242490;22;20691;-87
2021/10/19 03:37:45;;;;;;;13.10;8.37;;;13.80;99.90;;;;;;6242164;22;20215;-86
2021/10/19 03:40:11;;;;;;;13.10;8.80;;;13.80;99.90;;;;;;6217138;22;20216;-86
2021/10/19 03:42:41;;;;;;;14.50;8.53;;;13.80;99.90;;;;;;6269015;22;20592;-88
2021/10/19 03:45:11;;;;;;;13.47;9.73;;;13.80;99.90;;;;;;6243206;22;20920;-88
2021/10/19 03:47:36;;;;;;;12.13;7.77;;;13.80;99.90;;;;;;6241776;22;20188;-86
2021/10/19 03:50:03;;;;;;;13.73;8.03;;;13.80;99.90;;;;;;6242551;22;21018;-87
2021/10/19 03:52:29;;;;;;;13.97;8.67;;;13.70;99.90;;;;;;6242660;22;20201;-86
2021/10/19 03:54:55;;;;;;;13.00;9.37;;;13.80;99.90;;;;;;6216802;22;20197;-86
2021/10/19 03:57:20;;;;;;;9.73;7.47;;;13.80;99.90;;;;;;6243364;22;20163;-87
2021/10/19 03:59:46;;;;;;;13.97;9.17;;;13.80;99.90;;;;;;6268305;22;20687;-86
2021/10/19 04:02:12;;;;;;;13.00;7.17;;;13.80;99.90;;;;;;6217046;22;20279;-86
2021/10/19 04:04:37;;;;;;;15.90;8.17;;;13.80;99.90;;;;;;6242160;22;20275;-86
2021/10/19 04:07:03;;;;;;;13.17;7.63;;;13.80;99.90;;;;;;6241583;22;20208;-86
2021/10/19 04:09:29;;;;;;;13.30;8.00;;;13.80;99.90;;;;;;6242849;22;20176;-87
2021/10/19 04:11:55;;;;;;;13.53;9.13;;;13.90;99.90;;;;;;6268747;22;20199;-86
2021/10/19 04:14:21;;;;;;;20.13;9.23;;;13.90;99.90;;;;;;6191923;22;20197;-88
2021/10/19 04:16:47;;;;;;;17.17;8.93;;;13.90;99.90;;;;;;6191484;22;20560;-87
2021/10/19 04:19:13;;;;;;;14.90;7.87;;;13.90;99.90;;;;;;6268433;22;20192;-86
2021/10/19 04:21:47;;;;;;;14.43;8.23;;;13.90;99.90;;;;;;6268616;22;20245;-86
2021/10/19 04:24:14;;;;;;;13.90;8.63;;;13.90;99.90;;;;;;6241907;22;20231;-86
2021/10/19 04:26:40;;;;;;;15.97;9.07;;;13.90;99.90;;;;;;6267953;22;20485;-86
2021/10/19 04:29:05;;;;;;;17.63;10.40;;;13.90;99.90;;;;;;6215763;22;20324;-85
2021/10/19 04:31:31;;;;;;;14.13;9.10;;;14.00;99.90;;;;;;6241091;22;20204;-86
2021/10/19 04:33:59;;;;;;;20.10;9.07;;;14.00;99.90;;;;;;6216439;22;20227;-87
2021/10/19 04:36:26;;;;;;;18.63;8.90;;;14.00;99.90;;;;;;6269201;22;20169;-87
2021/10/19 04:38:52;;;;;;;14.93;8.40;;;14.00;99.90;;;;;;6241305;22;20228;-86
2021/10/19 04:41:18;;;;;;;15.57;9.00;;;14.00;99.90;;;;;;6242045;22;20632;-87
2021/10/19 04:43:43;;;;;;;13.87;8.77;;;14.00;99.90;;;;;;6241211;22;20627;-86
2021/10/19 04:46:09;;;;;;;15.77;9.83;;;14.00;99.90;;;;;;6216249;22;20560;-85
2021/10/19 04:48:35;;;;;;;15.20;9.70;;;14.00;99.90;;;;;;6216402;22;20156;-87
2021/10/19 04:51:02;;;;;;;15.50;8.97;;;14.00;99.90;;;;;;6241790;22;20161;-86
2021/10/19 04:53:28;;;;;;;18.47;10.87;;;14.00;99.90;;;;;;6233373;22;20196;-85
2021/10/19 04:55:54;;;;;;;20.70;10.80;;;14.00;99.90;;;;;;6212624;22;20200;-86
2021/10/19 04:58:20;;;;;;;18.03;10.37;;;14.00;99.90;;;;;;6241003;22;20587;-87
2021/10/19 05:00:50;;;;;;;20.57;11.60;;;14.00;99.90;;;;;;6265948;22;20708;-86
2021/10/19 05:03:23;;;;;;;21.90;11.50;;;14.10;99.90;;;;;;6240543;22;20157;-86
2021/10/19 05:05:50;;;;;;;19.13;12.17;;;14.10;99.90;;;;;;6214211;22;20234;-86
2021/10/19 05:08:15;;;;;;;21.23;10.30;;;14.20;99.90;;;;;;6237819;22;20218;-86
2021/10/19 05:10:44;;;;;;;22.83;10.93;;;14.20;99.90;;;;;;6235788;22;20653;-86
2021/10/19 05:13:12;;;;;;;17.73;9.93;;;14.20;99.90;;;;;;6263473;22;20780;-87
2021/10/19 05:15:37;;;;;;;18.07;9.67;;;14.20;99.90;;;;;;6237233;22;20158;-87
2021/10/19 05:18:03;;;;;;;23.70;12.07;;;14.20;99.90;;;;;;6266566;22;20156;-86
2021/10/19 05:20:29;;;;;;;16.13;10.37;;;14.30;99.90;;;;;;6265432;22;20258;-87
2021/10/19 05:22:56;;;;;;;27.03;12.13;;;14.30;99.90;;;;;;6214816;22;20836;-87
2021/10/19 05:25:23;;;;;;;20.50;13.47;;;14.30;99.90;;;;;;6239858;22;20839;-84
2021/10/19 05:27:49;;;;;;;25.47;13.43;;;14.30;99.90;;;;;;6239612;22;20153;-86
2021/10/19 05:30:17;;;;;;;24.33;12.27;;;14.40;99.90;;;;;;6240736;22;20165;-85
2021/10/19 05:32:44;;;;;;;22.13;12.90;;;14.40;99.90;;;;;;6239856;22;20197;-86
2021/10/19 05:35:10;;;;;;;22.67;11.93;;;14.40;99.90;;;;;;6266831;22;20565;-86
2021/10/19 05:37:36;;;;;;;21.53;10.90;;;14.40;99.90;;;;;;6215042;22;20204;-87
2021/10/19 05:40:03;;;;;;;19.00;11.43;;;14.50;99.90;;;;;;6239244;22;20382;-86
2021/10/19 05:42:29;;;;;;;26.40;13.57;;;14.50;99.90;;;;;;6241292;22;20156;-86
2021/10/19 05:44:55;;;;;;;19.70;10.67;;;14.50;99.90;;;;;;6240184;22;20193;-87
2021/10/19 05:47:21;;;;;;;19.73;10.63;;;14.50;99.90;;;;;;6266559;22;20251;-86
2021/10/19 05:49:46;;;;;;;21.67;9.80;;;14.50;99.90;;;;;;6239679;22;20285;-86
2021/10/19 05:52:12;;;;;;;21.93;11.63;;;14.50;99.90;;;;;;6240360;22;20195;-85
2021/10/19 05:54:38;;;;;;;22.53;10.77;;;14.50;99.90;;;;;;6215558;22;20227;-86
2021/10/19 05:57:04;;;;;;;23.97;11.90;;;14.60;99.90;;;;;;6216266;22;20657;-87
2021/10/19 05:59:30;;;;;;;19.77;11.07;;;14.60;99.90;;;;;;6266162;22;20635;-87
2021/10/19 06:01:56;;;;;;;23.90;10.97;;;14.60;99.90;;;;;;6214546;22;20212;-86
2021/10/19 06:04:22;;;;;;;17.87;10.97;;;14.60;99.90;;;;;;6239877;22;20188;-87
2021/10/19 06:06:55;;;;;;;29.17;12.73;;;14.60;99.90;;;;;;6214944;22;20619;-86
2021/10/19 06:09:21;;;;;;;18.37;8.77;;;14.60;99.90;;;;;;6239496;22;20153;-84
2021/10/19 06:11:47;;;;;;;19.43;10.73;;;14.70;99.90;;;;;;6238269;22;20709;-84
2021/10/19 06:14:13;;;;;;;19.60;11.47;;;14.70;99.90;;;;;;6238356;22;20215;-86
2021/10/19 06:16:39;;;;;;;17.07;9.97;;;14.70;99.90;;;;;;6240516;22;20271;-87
2021/10/19 06:19:05;;;;;;;17.30;9.57;;;14.70;99.90;;;;;;6240395;22;20192;-87
2021/10/19 06:21:30;;;;;;;22.60;11.80;;;14.70;99.90;;;;;;6190292;22;20619;-88
2021/10/19 06:23:56;;;;;;;20.43;12.73;;;14.70;99.90;;;;;;6190105;22;20208;-88
2021/10/19 06:26:22;;;;;;;19.80;10.30;;;14.70;99.90;;;;;;6215111;22;20208;-86
2021/10/19 06:28:48;;;;;;;20.93;12.00;;;14.70;99.90;;;;;;6215177;22;20196;-87
2021/10/19 06:31:13;;;;;;;23.20;11.90;;;14.70;99.90;;;;;;6213997;22;20545;-86
2021/10/19 06:33:39;;;;;;;23.30;10.73;;;14.80;99.90;;;;;;6215438;22;20161;-89
2021/10/19 06:36:05;;;;;;;19.30;8.87;;;14.80;99.90;;;;;;6191749;22;21114;-86
2021/10/19 06:38:31;;;;;;;20.27;11.50;;;14.80;99.90;;;;;;6242226;22;20204;-88
2021/10/19 06:40:57;;;;;;;19.63;11.03;;;14.80;99.90;;;;;;6240800;22;20204;-89
2021/10/19 06:43:23;;;;;;;19.50;9.90;;;14.80;99.90;;;;;;6240857;22;20196;-88
2021/10/19 06:45:49;;;;;;;18.60;10.10;;;14.80;99.90;;;;;;6215830;22;20511;-88
2021/10/19 06:48:15;;;;;;;20.63;10.20;;;14.80;99.90;;;;;;6214453;22;20577;-88
2021/10/19 06:50:41;;;;;;;18.80;9.73;;;14.80;99.90;;;;;;6242555;22;20211;-89
2021/10/19 06:53:06;;;;;;;26.00;12.47;;;14.90;99.90;;;;;;6224071;22;20197;-87
2021/10/19 06:55:32;;;;;;;24.50;11.90;;;14.80;99.90;;;;;;6267461;22;20203;-88
2021/10/19 06:57:58;;;;;;;18.43;11.13;;;14.90;99.90;;;;;;6216014;22;20520;-90
2021/10/19 07:00:24;;;;;;;20.90;9.80;;;14.90;99.90;;;;;;6215752;22;20279;-86
2021/10/19 07:02:50;;;;;;;15.17;10.17;;;14.90;99.90;;;;;;6240197;22;20195;-88
2021/10/19 07:05:16;;;;;;;25.07;10.63;;;14.90;99.90;;;;;;6214301;22;20188;-87
2021/10/19 07:07:43;;;;;;;18.30;10.43;;;14.90;99.90;;;;;;6190702;22;20201;-89
2021/10/19 07:10:13;;;;;;;19.43;10.57;;;15.00;99.90;;;;;;6215085;22;20196;-88
2021/10/19 07:12:40;;;;;;;16.83;10.17;;;15.00;99.90;;;;;;6215288;22;20148;-87
2021/10/19 07:15:07;;;;;;;19.30;9.87;;;15.00;99.90;;;;;;6216611;22;20349;-88
2021/10/19 07:17:33;;;;;;;23.50;11.20;;;15.00;99.90;;;;;;6240189;22;20192;-86
2021/10/19 07:19:59;;;;;;;19.13;10.57;;;15.00;99.90;;;;;;6214380;22;20643;-87
2021/10/19 07:22:28;;;;;;;17.70;10.70;;;15.10;99.90;;;;;;6214512;22;20200;-86
2021/10/19 07:24:55;;;;;;;19.30;10.17;;;15.00;99.90;;;;;;6267009;22;20200;-88
2021/10/19 07:27:20;;;;;;;20.27;9.80;;;15.10;99.90;;;;;;6240949;22;20153;-86
2021/10/19 07:29:46;;;;;;;17.03;9.13;;;15.10;99.90;;;;;;6266426;22;20585;-87
2021/10/19 07:32:14;;;;;;;19.07;9.53;;;15.20;99.90;;;;;;6239782;22;20738;-86
2021/10/19 07:34:40;;;;;;;17.17;9.13;;;15.20;99.90;;;;;;6215162;22;20241;-88
2021/10/19 07:37:06;;;;;;;13.43;7.20;;;15.20;99.90;;;;;;6239549;22;20197;-86
2021/10/19 07:39:31;;;;;;;14.10;7.47;;;15.20;99.90;;;;;;6240260;22;20192;-86
2021/10/19 07:41:57;;;;;;;13.53;7.33;;;15.20;99.90;;;;;;6240926;22;20538;-84
2021/10/19 07:44:23;;;;;;;14.83;9.37;;;15.30;99.90;;;;;;6240236;22;20196;-87
2021/10/19 07:46:52;;;;;;;14.37;8.23;;;15.20;99.90;;;;;;6215532;22;20199;-87
2021/10/19 07:49:19;;;;;;;14.13;7.37;;;15.30;99.90;;;;;;6239994;22;20689;-87
2021/10/19 07:51:45;;;;;;;17.13;7.63;;;15.20;99.90;;;;;;6239713;22;20175;-87
2021/10/19 07:54:11;;;;;;;13.37;7.67;;;15.30;99.90;;;;;;6215324;22;20157;-86
2021/10/19 07:56:38;;;;;;;13.50;6.87;;;15.30;99.90;;;;;;6214901;22;20200;-87
2021/10/19 07:59:05;;;;;;;14.53;7.40;;;15.30;99.90;;;;;;6190781;22;20287;-87
2021/10/19 08:01:33;;;;;;;12.77;7.40;;;15.40;99.90;;;;;;6189478;22;20212;-86
2021/10/19 08:03:59;;;;;;;14.67;7.57;;;15.40;99.90;;;;;;6216055;22;20297;-86
2021/10/19 08:06:25;;;;;;;11.67;6.10;;;15.40;99.90;;;;;;6236844;22;20200;-86
2021/10/19 08:08:50;;;;;;;11.47;6.50;;;15.40;99.90;;;;;;6210961;23;20205;-86
2021/10/19 08:11:16;;;;;;;11.83;6.90;;;15.50;99.90;;;;;;6186173;23;20859;-86
2021/10/19 08:13:42;;;;;;;11.10;6.50;;;15.50;99.90;;;;;;6237021;22;20658;-86
2021/10/19 08:16:08;;;;;;;11.50;6.50;;;15.60;99.90;;;;;;6237659;22;20630;-86
2021/10/19 08:18:34;;;;;;;13.20;6.23;;;15.60;99.90;;;;;;6211393;22;20273;-87
2021/10/19 08:20:59;;;;;;;10.63;6.13;;;15.60;99.90;;;;;;6187875;23;20181;-86
2021/10/19 08:23:27;;;;;;;10.73;5.63;;;15.70;99.90;;;;;;6186138;23;20251;-86
2021/10/19 08:25:53;;;;;;;12.53;5.87;;;15.70;99.90;;;;;;6237088;22;20586;-87
2021/10/19 08:28:24;;;;;;;11.17;7.20;;;15.70;99.90;;;;;;6236674;22;20260;-86
2021/10/19 08:30:51;;;;;;;12.67;6.33;;;15.80;99.90;;;;;;6211992;22;20149;-86
2021/10/19 08:33:17;;;;;;;10.23;6.43;;;15.80;99.90;;;;;;6211563;23;20207;-87
2021/10/19 08:35:43;;;;;;;9.93;5.77;;;15.80;99.90;;;;;;6235810;22;20246;-86
2021/10/19 08:38:13;;;;;;;13.53;6.20;;;15.80;99.90;;;;;;6236353;22;20197;-86
2021/10/19 08:40:40;;;;;;;8.37;5.20;;;15.80;99.90;;;;;;6235972;22;20206;-85
2021/10/19 08:43:06;;;;;;;7.73;5.03;;;15.80;99.90;;;;;;6236658;22;20189;-85
2021/10/19 08:45:32;;;;;;;11.00;5.93;;;15.90;99.90;;;;;;6236585;22;20166;-83
2021/10/19 08:47:59;;;;;;;12.00;5.53;;;15.90;99.90;;;;;;6237130;23;20224;-86
2021/10/19 08:50:25;;;;;;;11.53;6.00;;;15.90;99.90;;;;;;6235059;22;20276;-86
2021/10/19 08:52:51;;;;;;;9.63;5.97;;;15.90;99.90;;;;;;6186045;23;20216;-86
2021/10/19 08:55:17;;;;;;;10.33;5.70;;;15.90;99.90;;;;;;6237270;22;20624;-86
2021/10/19 08:57:43;;;;;;;6.97;4.33;;;15.90;99.90;;;;;;6236392;22;20251;-86
2021/10/19 09:00:10;;;;;;;9.90;5.10;;;15.90;99.90;;;;;;6211569;23;20635;-87
2021/10/19 09:02:42;;;;;;;5.33;4.00;;;15.90;99.90;;;;;;6236709;22;20205;-86
2021/10/19 09:05:22;;;;;;;11.33;5.73;;;15.90;99.90;;;;;;6236823;22;20248;-88
2021/10/19 09:08:05;;;;;;;8.10;5.10;;;15.90;99.90;;;;;;6237112;22;20707;-88
2021/10/19 09:10:34;;;;;;;9.67;5.37;;;15.90;99.90;;;;;;6212219;23;20201;-88
2021/10/19 09:13:03;;;;;;;7.87;4.60;;;15.90;99.90;;;;;;6237670;22;20190;-87
2021/10/19 09:15:31;;;;;;;9.53;5.73;;;16.00;99.90;;;;;;6233492;23;20601;-88
2021/10/19 09:18:05;;;;;;;9.10;5.93;;;16.00;99.90;;;;;;6241085;23;20181;-89
2021/10/19 09:20:36;;;;;;;10.77;6.13;;;16.00;99.90;;;;;;6240912;22;20209;-87
2021/10/19 09:23:03;;;;;;;11.93;5.87;;;16.10;99.90;;;;;;6210798;23;20209;-87
2021/10/19 09:25:34;;;;;;;8.80;5.10;;;16.10;99.90;;;;;;6185648;23;20242;-86
2021/10/19 09:28:02;;;;;;;10.47;6.30;;;16.00;99.90;;;;;;6235838;22;20312;-88
2021/10/19 09:30:32;;;;;;;9.97;5.30;;;16.10;99.90;;;;;;6233924;23;20158;-89
2021/10/19 09:32:58;;;;;;;11.10;5.77;;;16.10;99.90;;;;;;6236082;23;20181;-88
2021/10/19 09:35:23;;;;;;;8.53;6.00;;;16.10;99.90;;;;;;6211035;23;20982;-88
2021/10/19 09:38:00;;;;;;;10.10;6.30;;;16.10;99.90;;;;;;6235846;22;20265;-87
2021/10/19 09:40:35;;;;;;;9.00;5.63;;;16.10;99.90;;;;;;6210334;23;20203;-88
2021/10/19 09:43:06;;;;;;;8.17;5.80;;;16.20;99.90;;;;;;6236120;22;20267;-86
2021/10/19 09:45:33;;;;;;;8.17;5.27;;;16.20;99.90;;;;;;6236891;23;20483;-88
2021/10/19 09:48:00;;;;;;;7.80;5.43;;;16.20;99.90;;;;;;6211026;23;20624;-88
2021/10/19 09:50:27;;;;;;;8.80;5.33;;;16.20;99.90;;;;;;6235507;22;20212;-87
2021/10/19 09:52:54;;;;;;;10.93;5.17;;;16.20;99.90;;;;;;6236883;22;20189;-88
2021/10/19 09:55:22;;;;;;;9.20;6.03;;;16.30;99.90;;;;;;6235120;22;20193;-88
2021/10/19 09:57:51;;;;;;;7.73;5.03;;;16.40;99.90;;;;;;6210551;22;20188;-86
2021/10/19 10:00:17;;;;;;;11.87;6.40;;;16.40;99.90;;;;;;6233311;23;20193;-90
2021/10/19 10:02:44;;;;;;;10.50;6.00;;;16.50;99.90;;;;;;6231305;22;20953;-88
2021/10/19 10:05:11;;;;;;;10.03;6.07;;;16.40;99.90;;;;;;6231532;22;20204;-88
2021/10/19 10:07:40;;;;;;;9.03;6.17;;;16.40;99.90;;;;;;6231657;22;20216;-86
2021/10/19 10:10:08;;;;;;;8.93;5.90;;;16.40;99.90;;;;;;6233202;22;20568;-86
2021/10/19 10:12:37;;;;;;;12.40;6.97;;;16.40;99.90;;;;;;6209648;22;20141;-86
2021/10/19 10:15:03;;;;;;;8.33;4.70;;;16.40;99.90;;;;;;6236381;23;20161;-87
2021/10/19 10:17:29;;;;;;;9.97;5.50;;;16.50;99.90;;;;;;6235044;22;20197;-88
2021/10/19 10:20:06;;;;;;;9.47;6.17;;;16.40;99.90;;;;;;6210188;23;20208;-86
2021/10/19 10:22:32;;;;;;;9.03;5.40;;;16.50;99.90;;;;;;6234958;22;20343;-87
2021/10/19 10:25:06;;;;;;;6.17;4.60;;;16.40;99.90;;;;;;6235392;22;20932;-86
2021/10/19 10:27:32;;;;;;;11.23;5.70;;;16.50;99.90;;;;;;6235173;23;20152;-87
2021/10/19 10:29:58;;;;;;;12.13;6.60;;;16.50;99.90;;;;;;6210401;23;20185;-87
2021/10/19 10:32:28;;;;;;;8.20;5.50;;;16.60;99.90;;;;;;6185394;23;20212;-86
2021/10/19 10:35:09;;;;;;;8.77;5.63;;;16.60;99.90;;;;;;6236586;22;20243;-88
2021/10/19 10:37:43;;;;;;;7.97;4.77;;;16.70;99.90;;;;;;6234590;22;20268;-87
2021/10/19 10:40:12;;;;;;;7.53;4.00;;;16.80;99.90;;;;;;6234871;22;20196;-87
2021/10/19 10:42:40;;;;;;;9.83;5.73;;;16.80;99.90;;;;;;6209942;22;20550;-86
2021/10/19 10:45:31;;;;;;;9.10;4.80;;;16.90;99.90;;;;;;6235843;23;20185;-86
2021/10/19 10:47:59;;;;;;;8.77;5.20;;;16.90;99.90;;;;;;6235478;22;20632;-88
2021/10/19 10:50:26;;;;;;;8.30;5.47;;;17.00;99.90;;;;;;6235732;22;20581;-88
2021/10/19 10:53:07;;;;;;;5.73;3.60;;;17.00;99.90;;;;;;6235347;22;20516;-86
2021/10/19 10:55:37;;;;;;;6.97;4.27;;;17.10;99.90;;;;;;6234497;22;20281;-87
2021/10/19 10:58:03;;;;;;;7.67;5.03;;;17.10;99.90;;;;;;6234725;22;20640;-84
2021/10/19 11:00:29;;;;;;;6.70;4.50;;;17.00;99.90;;;;;;6234995;23;20513;-85
2021/10/19 11:03:15;;;;;;;16.67;9.50;;;17.10;99.90;;;;;;6235254;22;20205;-86
2021/10/19 11:05:55;;;;;;;10.97;7.67;;;17.10;99.90;;;;;;6208221;23;20270;-85
2021/10/19 11:08:35;;;;;;;10.90;7.77;;;17.20;99.90;;;;;;6234623;22;20663;-86
2021/10/19 11:11:13;;;;;;;11.33;6.53;;;17.10;99.90;;;;;;6234465;22;20211;-84
2021/10/19 11:13:55;;;;;;;8.37;5.37;;;17.10;99.90;;;;;;6234403;22;20237;-85
2021/10/19 11:16:40;;;;;;;8.33;5.83;;;17.10;99.90;;;;;;6235950;22;20193;-87
2021/10/19 11:19:15;;;;;;;9.17;5.53;;;17.10;99.90;;;;;;6234249;22;20563;-86
2021/10/19 11:21:41;;;;;;;7.90;5.70;;;17.20;99.90;;;;;;6235378;22;20168;-86
2021/10/19 11:24:07;;;;;;;6.80;4.83;;;17.30;99.90;;;;;;6210076;23;20265;-86
2021/10/19 11:26:36;;;;;;;7.47;5.23;;;17.20;99.90;;;;;;6233794;22;20829;-85
2021/10/19 11:29:03;;;;;;;16.60;12.40;;;17.30;99.90;;;;;;6210195;23;20909;-85
2021/10/19 11:31:30;;;;;;;6.37;5.23;;;17.20;99.90;;;;;;6234008;22;20239;-87
2021/10/19 11:33:57;;;;;;;4.10;3.27;;;17.20;99.90;;;;;;6234867;22;20189;-86
2021/10/19 11:36:23;;;;;;;4.57;3.30;;;17.20;99.90;;;;;;6235223;23;20195;-85
2021/10/19 11:38:52;;;;;;;5.33;4.00;;;17.30;99.90;;;;;;6236609;22;20208;-85
2021/10/19 11:41:20;;;;;;;5.53;3.13;;;17.30;99.90;;;;;;6210241;23;20965;-84
2021/10/19 11:43:58;;;;;;;7.73;6.97;;;17.30;99.90;;;;;;6233972;22;20640;-87
2021/10/19 11:46:26;;;;;;;3.93;3.20;;;17.30;99.90;;;;;;6235074;22;20238;-84
2021/10/19 11:48:54;;;;;;;4.60;3.10;;;17.30;99.90;;;;;;6250249;22;20255;-86
2021/10/19 11:51:23;;;;;;;5.70;4.30;;;17.20;99.90;;;;;;6239659;22;20165;-86
2021/10/19 11:53:54;;;;;;;3.37;2.30;;;17.20;99.90;;;;;;6236279;22;20193;-86
2021/10/19 11:56:21;;;;;;;3.43;3.00;;;17.20;99.90;;;;;;6212339;23;20204;-87
2021/10/19 11:58:56;;;;;;;3.83;2.57;;;17.20;99.90;;;;;;6210509;23;20189;-85
2021/10/19 12:01:24;;;;;;;4.10;2.33;;;17.20;99.90;;;;;;6236554;22;20211;-85
2021/10/19 12:04:04;;;;;;;4.50;2.60;;;17.20;99.90;;;;;;6234562;22;20467;-86
2021/10/19 12:06:32;;;;;;;2.90;2.60;;;17.30;99.90;;;;;;6210620;23;20916;-84
2021/10/19 12:09:10;;;;;;;3.07;2.33;;;17.30;99.90;;;;;;6236226;23;20181;-86
2021/10/19 12:11:36;;;;;;;2.63;2.40;;;17.40;99.90;;;;;;6235917;22;20196;-86
2021/10/19 12:14:05;;;;;;;4.40;2.90;;;17.50;99.90;;;;;;6208913;23;20189;-85
2021/10/19 12:16:32;;;;;;;3.03;1.93;;;17.50;99.90;;;;;;6234237;22;20203;-85
2021/10/19 12:19:00;;;;;;;1.90;1.47;;;17.50;99.90;;;;;;6184912;23;20272;-85
2021/10/19 12:21:31;;;;;;;2.47;1.97;;;17.40;99.90;;;;;;6209782;23;20770;-83
2021/10/19 12:24:02;;;;;;;5.33;2.53;;;17.40;99.90;;;;;;6232485;22;20193;-82
2021/10/19 12:26:30;;;;;;;3.53;2.33;;;17.40;99.90;;;;;;6231168;22;20193;-82
2021/10/19 12:29:00;;;;;;;4.47;2.60;;;17.40;99.90;;;;;;6229395;22;20193;-83
2021/10/19 12:31:26;;;;;;;5.73;3.80;;;17.40;99.90;;;;;;6230130;22;20197;-82
2021/10/19 12:34:00;;;;;;;5.77;3.47;;;17.50;99.90;;;;;;6231264;22;20193;-82
2021/10/19 12:36:30;;;;;;;4.50;3.77;;;17.50;99.90;;;;;;6231698;22;20153;-83
2021/10/19 12:39:00;;;;;;;3.80;2.60;;;17.50;99.90;;;;;;6210871;23;20955;-86